Latest Weather Observations for Laverton

IDW60801

Issued at 3:23 pm WST Wednesday 10 August 2022 (issued every 10 minutes, with the page automatically refreshed every 10 minutes)

About weather observations | Map of weather stations | Latest weather observations for WA | Other Formats
Station Details ID: 012305 Name: LAVERTON AERO Lat: -28.61 Lon: 122.42 Height: 464.3 m
Data from the previous 72 hours. | See also: Recent months at Laverton
Date/Time
WST
Temp
°C
App
Temp
°C
Dew
Point
°C
Rel
Hum
%
Delta-T
°C
Wind Press
QNH
hPa
Press
MSL
hPa
Rain since
9am
mm
Dir  Spd
km/h
Gust
km/h
Spd
kts
Gust
kts
10/03:00pm 15.1 8.3 -5.3 24 7.9 SW 22 35 12 19 1019.4 1018.8 0.0
10/02:30pm 14.7 8.0 -4.6 26 7.6 SW 22 35 12 19 1019.5 1018.9 0.0
10/02:00pm 14.2 7.0 -5.0 26 7.4 WSW 24 35 13 19 1019.5 1018.9 0.0
10/01:30pm 14.2 7.6 -3.6 29 7.1 SW 22 33 12 18 1019.4 1018.8 0.0
10/01:00pm 13.4 6.6 -2.1 34 6.3 SW 24 35 13 19 1019.7 1019.1 0.0
10/12:30pm 13.2 7.2 -1.2 37 6.0 SW 20 33 11 18 1020.0 1019.5 0.0
10/12:00pm 12.8 6.9 -0.8 39 5.7 WSW 20 30 11 16 1020.5 1020.0 0.0
10/11:30am 11.6 5.4 -0.5 43 5.0 SW 22 35 12 19 1020.8 1020.3 0.0
10/11:00am 10.8 5.2 0.2 48 4.4 SW 19 32 10 17 1021.3 1020.7 0.0
10/10:30am 10.2 3.8 0.8 52 4.0 SW 24 32 13 17 1021.5 1020.9 0.0
10/10:00am 9.1 3.5 1.3 58 3.3 SW 20 26 11 14 1021.7 1021.1 0.0
10/09:30am 9.1 3.7 2.2 62 3.0 SW 20 32 11 17 1021.7 1021.1 0.0
10/09:00am 7.7 1.1 2.2 68 2.3 SW 26 32 14 17 1021.4 1020.8 0.0
10/08:30am 7.0 0.9 2.7 74 1.8 SW 24 30 13 16 1021.4 1020.8 0.0
10/08:00am 6.4 0.3 2.9 78 1.5 WSW 24 33 13 18 1021.2 1020.6 0.0
10/07:30am 5.9 0.2 2.7 80 1.4 WSW 22 30 12 16 1020.7 1020.2 0.0
10/07:00am 4.2 0.4 1.9 85 0.9 W 11 15 6 8 1020.3 1019.8 0.0
10/06:30am 3.9 -0.3 1.6 85 0.9 WSW 13 17 7 9 1019.9 1019.3 0.0
10/06:00am 3.9 0.0 1.4 84 1.0 W 11 13 6 7 1019.7 1019.1 0.0
10/05:30am 4.3 0.0 1.3 81 1.2 W 13 17 7 9 1019.3 1018.7 0.0
10/05:00am 5.1 0.2 1.8 79 1.4 WSW 17 20 9 11 1019.0 1018.4 0.0
10/04:30am 5.2 0.3 1.7 78 1.4 WSW 17 20 9 11 1018.4 1017.9 0.0
10/04:00am 5.6 0.7 1.7 76 1.6 WSW 17 22 9 12 1018.2 1017.7 0.0
10/03:30am 5.7 0.8 1.8 76 1.6 W 17 22 9 12 1018.0 1017.4 0.0
10/03:00am 6.0 0.7 1.7 74 1.8 W 19 24 10 13 1018.0 1017.4 0.0
10/02:30am 6.4 0.9 1.7 72 2.0 W 20 26 11 14 1017.7 1017.1 0.0
10/02:00am 6.4 1.4 1.5 71 2.0 W 17 20 9 11 1017.7 1017.1 0.0
10/01:30am 6.8 1.8 1.5 69 2.2 W 17 22 9 12 1017.5 1016.9 0.0
10/01:00am 7.1 2.1 1.4 67 2.4 W 17 22 9 12 1017.5 1016.9 0.0
10/12:30am 7.5 2.5 1.4 65 2.5 W 17 22 9 12 1017.4 1016.8 0.0
10/12:00am 8.0 2.6 1.4 63 2.8 W 19 24 10 13 1017.4 1016.8 0.0
 
Date/Time
WST
Temp
°C
App
Temp
°C
Dew
Point
°C
Rel
Hum
%
Delta-T
°C
Wind Press
QNH
hPa
Press
MSL
hPa
Rain since
9am
mm
Dir  Spd
km/h
Gust
km/h
Spd
kts
Gust
kts
09/11:30pm 8.3 2.7 1.2 61 3.0 W 20 24 11 13 1017.3 1016.7 0.0
09/11:00pm 8.7 2.7 0.9 58 3.2 W 22 35 12 19 1017.2 1016.6 0.0
09/10:30pm 9.0 2.9 0.7 56 3.5 W 22 33 12 18 1017.1 1016.5 0.0
09/10:00pm 9.3 3.6 0.5 54 3.7 WNW 20 26 11 14 1016.7 1016.1 0.0
09/09:30pm 9.7 3.6 0.6 53 3.8 WNW 22 28 12 15 1016.6 1016.0 0.0
09/09:00pm 10.0 3.9 0.3 51 4.0 W 22 32 12 17 1016.5 1015.9 0.0
09/08:30pm 10.2 4.6 -0.3 48 4.3 W 19 28 10 15 1015.9 1015.3 0.0
09/08:00pm 10.6 4.8 -0.2 47 4.5 W 20 26 11 14 1015.3 1014.7 0.0
09/07:30pm 11.1 4.5 -0.1 46 4.7 W 24 35 13 19 1015.1 1014.5 0.0
09/07:00pm 11.2 5.4 -0.3 45 4.8 W 20 28 11 15 1014.7 1014.1 0.0
09/06:30pm 11.7 4.3 -0.4 43 5.0 W 28 37 15 20 1014.3 1013.6 0.0
09/06:18pm 11.8 4.5 0.0 44 5.0 W 28 46 15 25 1014.0 1013.4 0.0
09/06:00pm 12.0 4.0 0.5 45 4.9 W 32 46 17 25 1013.7 1013.1 0.0
09/05:37pm 12.7 5.4 0.1 42 5.4 W 28 46 15 25 1013.1 1012.5 0.0
09/05:30pm 12.9 6.4 0.0 41 5.5 W 24 44 13 24 1012.9 1012.3 0.0
09/05:00pm 13.3 5.8 1.0 43 5.4 W 30 43 16 23 1012.8 1012.2 0.0
09/04:30pm 13.5 5.1 1.5 44 5.3 WSW 35 54 19 29 1012.6 1012.0 0.0
09/04:17pm 14.0 4.8 1.3 42 5.6 W 39 57 21 31 1012.4 1011.7 0.0
09/04:00pm 14.3 6.0 1.9 43 5.6 W 35 46 19 25 1012.1 1011.4 0.0
09/03:30pm 14.6 6.9 2.2 43 5.6 W 32 43 17 23 1011.8 1011.2 0.0
09/03:13pm 15.0 6.6 1.5 40 6.0 W 35 54 19 29 1011.6 1011.0 0.0
09/03:00pm 14.6 5.7 0.5 38 6.2 W 37 54 20 29 1011.4 1010.8 0.0
09/02:30pm 13.6 3.2 2.2 46 5.1 WSW 46 78 25 42 1011.3 1010.7 0.0
09/02:28pm 13.8 3.9 1.8 44 5.4 WSW 43 78 23 42 1011.2 1010.6 0.0
09/02:00pm 15.9 6.3 -1.2 31 7.3 W 39 59 21 32 1010.7 1010.1 0.0
09/01:54pm 16.5 7.0 -1.1 30 7.6 W 39 56 21 30 1010.7 1010.1 0.0
09/01:51pm 16.0 5.7 -0.7 32 7.2 W 43 59 23 32 1010.7 1010.1 0.0
09/01:39pm 16.8 6.8 -1.3 29 7.8 WNW 41 59 22 32 1010.6 1009.9 0.0
09/01:30pm 16.7 6.6 -2.4 27 8.0 WNW 41 54 22 29 1010.8 1010.2 0.0
09/01:01pm 16.0 7.6 1.3 37 6.6 W 35 54 19 29 1011.0 1010.4 0.0
09/01:00pm 16.0 7.2 1.3 37 6.6 WNW 37 54 20 29 1011.0 1010.4 0.0
09/12:45pm 15.9 7.7 0.1 34 6.9 W 33 54 18 29 1011.1 1010.5 0.0
09/12:30pm 15.8 7.6 2.6 41 6.1 WNW 35 52 19 28 1011.3 1010.7 0.0
09/12:00pm 15.2 8.2 4.0 47 5.3 W 30 39 16 21 1011.8 1011.2 0.0
09/11:30am 14.9 7.9 4.0 48 5.1 W 30 41 16 22 1012.3 1011.6 0.0
09/11:00am 14.7 8.8 4.1 49 5.0 W 24 32 13 17 1012.7 1012.1 0.0
09/10:30am 14.5 8.4 4.8 52 4.6 W 26 35 14 19 1013.2 1012.6 0.0
09/10:00am 14.0 8.4 5.6 57 4.1 SW 24 33 13 18 1013.6 1013.0 0.0
09/09:30am 13.3 7.8 5.9 61 3.6 WSW 24 33 13 18 1013.6 1013.0 0.0
09/09:00am 12.8 7.7 5.9 63 3.3 WSW 22 28 12 15 1013.4 1012.8 0.0
09/08:30am 12.0 6.8 5.6 65 3.1 WSW 22 30 12 16 1013.2 1012.6 0.0
09/08:00am 10.4 6.4 3.0 60 3.3 WSW 13 19 7 10 1013.2 1012.6 0.0
09/07:30am 7.3 3.1 -0.9 56 3.2 W 11 13 6 7 1012.8 1012.2 0.0
09/07:00am 5.7 2.0 -3.1 53 3.2 W 7 9 4 5 1012.4 1011.7 0.0
09/06:30am 5.3 2.7 -4.8 48 3.5 CALM 0 0 0 0 1012.0 1011.3 0.0
09/06:00am 6.5 4.0 -4.3 46 3.9 CALM 0 0 0 0 1011.6 1011.0 0.0
09/05:30am 6.4 2.6 -5.6 42 4.2 W 6 7 3 4 1011.5 1010.9 0.0
09/05:00am 6.5 1.7 -5.8 41 4.3 W 11 11 6 6 1011.1 1010.5 0.0
09/04:30am 6.0 2.5 -6.6 40 4.2 WNW 4 9 2 5 1011.0 1010.4 0.0
09/04:00am 5.7 2.9 -6.8 40 4.2 CALM 0 0 0 0 1010.9 1010.3 0.0
09/03:30am 5.9 3.1 -7.3 38 4.4 CALM 0 0 0 0 1011.1 1010.5 0.0
09/03:00am 6.8 3.9 -7.6 35 4.8 CALM 0 0 0 0 1011.2 1010.6 0.0
09/02:30am 6.9 3.6 -7.9 34 4.9 NNW 2 9 1 5 1011.4 1010.8 0.0
09/02:00am 7.8 3.7 -8.2 31 5.3 NW 6 7 3 4 1011.7 1011.1 0.0
09/01:30am 8.8 4.8 -7.8 30 5.6 NW 6 9 3 5 1012.1 1011.4 0.0
09/01:00am 9.5 5.3 -8.1 28 6.0 NW 7 11 4 6 1012.3 1011.6 0.0
09/12:30am 10.1 6.0 -8.5 26 6.3 N 6 11 3 6 1012.4 1011.7 0.0
09/12:00am 10.9 5.9 -8.3 25 6.6 NNE 11 15 6 8 1012.4 1011.7 0.0
 
Date/Time
WST
Temp
°C
App
Temp
°C
Dew
Point
°C
Rel
Hum
%
Delta-T
°C
Wind Press
QNH
hPa
Press
MSL
hPa
Rain since
9am
mm
Dir  Spd
km/h
Gust
km/h
Spd
kts
Gust
kts
08/11:30pm 11.3 5.9 -8.5 24 6.8 NW 13 17 7 9 1013.0 1012.4 0.0
08/11:00pm 11.3 6.2 -9.0 23 6.9 N 11 13 6 7 1012.9 1012.3 0.0
08/10:30pm 11.9 7.2 -9.1 22 7.2 N 9 15 5 8 1013.2 1012.6 0.0
08/10:00pm 13.3 8.2 -9.2 20 7.8 NW 11 13 6 7 1013.5 1012.9 0.0
08/09:30pm 14.9 9.4 -9.9 17 8.7 NNE 13 17 7 9 1013.3 1012.7 0.0
08/09:00pm 15.6 9.7 -10.1 16 9.0 NNE 15 19 8 10 1013.6 1013.0 0.0
08/08:30pm 14.5 9.0 -9.5 18 8.4 NNE 13 17 7 9 1013.7 1013.1 0.0
08/08:00pm 15.4 10.2 -10.3 16 9.0 N 11 13 6 7 1013.6 1013.0 0.0
08/07:30pm 15.8 10.3 -9.9 16 9.1 N 13 15 7 8 1013.7 1013.1 0.0
08/07:00pm 14.6 9.9 -8.7 19 8.3 N 9 11 5 6 1013.5 1012.9 0.0
08/06:30pm 17.4 12.9 -11.3 13 10.0 N 7 9 4 5 1013.5 1012.9 0.0
08/06:00pm 19.1 14.6 -12.0 11 11.0 NNW 7 9 4 5 1013.3 1012.7 0.0
08/05:30pm 21.1 15.8 -13.0 9 12.1 NNW 11 13 6 7 1013.4 1012.8 0.0
08/05:00pm 22.8 17.1 -13.1 8 12.9 NNW 13 20 7 11 1013.3 1012.7 0.0
08/04:30pm 23.3 16.8 -12.8 8 13.2 N 17 28 9 15 1013.4 1012.8 0.0
08/04:00pm 23.5 16.1 -12.6 8 13.2 N 22 32 12 17 1013.4 1012.8 0.0
08/03:30pm 23.8 16.7 -14.0 7 13.6 NNW 20 26 11 14 1013.5 1012.9 0.0
08/03:00pm 24.0 16.9 -13.9 7 13.6 NNW 20 26 11 14 1013.6 1013.0 0.0
08/02:30pm 23.8 17.4 -12.4 8 13.4 N 17 24 9 13 1013.9 1013.3 0.0
08/02:00pm 24.4 17.3 -13.6 7 13.8 N 20 35 11 19 1014.2 1013.5 0.0
08/01:30pm 23.7 17.2 -12.5 8 13.3 N 17 26 9 14 1014.6 1014.0 0.0
08/01:00pm 23.6 17.1 -12.5 8 13.3 NNW 17 26 9 14 1015.2 1014.6 0.0
08/12:30pm 23.0 16.6 -11.5 9 12.8 N 17 24 9 13 1015.7 1015.1 0.0
08/12:00pm 23.0 16.6 -11.5 9 12.8 NNW 17 28 9 15 1016.5 1015.9 0.0
08/11:30am 22.1 15.2 -10.9 10 12.3 N 20 28 11 15 1017.2 1016.6 0.0
08/11:00am 22.0 15.2 -9.8 11 12.1 NNW 20 30 11 16 1017.7 1017.1 0.0
08/10:30am 21.1 14.2 -10.5 11 11.7 N 20 33 11 18 1017.9 1017.3 0.0
08/10:00am 20.4 13.8 -8.9 13 11.1 NNE 19 24 10 13 1018.2 1017.7 0.0
08/09:30am 19.3 12.7 -8.8 14 10.6 NNE 19 22 10 12 1018.5 1018.0 0.0
08/09:00am 17.8 11.7 -8.3 16 9.7 NNE 17 22 9 12 1018.6 1018.1 0.0
08/08:30am 14.9 11.9 -5.5 24 7.8 NNE 2 7 1 4 1018.9 1018.3 0.0
08/08:00am 11.0 7.6 -5.5 31 6.1 E 4 7 2 4 1018.9 1018.3 0.0
08/07:30am 7.7 3.8 -6.4 36 4.9 E 6 9 3 5 1018.6 1018.1 0.0
08/07:00am 5.1 0.6 -6.7 42 3.9 ENE 9 11 5 6 1018.4 1017.9 0.0
08/06:30am 3.7 -1.2 -6.8 46 3.4 ENE 11 13 6 7 1018.2 1017.7 0.0
08/06:00am 3.6 -0.5 -6.6 47 3.3 NE 7 9 4 5 1018.1 1017.6 0.0
08/05:30am 3.7 -0.4 -6.5 47 3.3 N 7 9 4 5 1018.1 1017.6 0.0
08/05:00am 3.8 -0.6 -6.2 48 3.3 N 9 9 5 5 1018.0 1017.4 0.0
08/04:30am 4.3 0.3 -6.0 47 3.4 NE 7 9 4 5 1017.9 1017.3 0.0
08/04:00am 4.8 0.1 -5.5 47 3.5 NE 11 13 6 7 1017.9 1017.3 0.0
08/03:30am 5.1 1.3 -5.5 46 3.6 NNE 6 7 3 4 1018.0 1017.4 0.0
08/03:00am 6.5 2.8 -4.9 44 4.0 NNE 6 11 3 6 1018.1 1017.6 0.0
08/02:30am 7.0 3.0 -5.3 41 4.3 NNE 7 11 4 6 1018.3 1017.8 0.0
08/02:00am 7.5 3.6 -4.6 42 4.3 NE 7 13 4 7 1018.8 1018.2 0.0
08/01:30am 7.4 3.6 -4.0 44 4.2 SSE 7 9 4 5 1019.1 1018.5 0.0
08/01:00am 7.4 3.7 -4.3 43 4.2 NE 6 7 3 4 1019.2 1018.6 0.0
08/12:30am 7.6 2.9 -4.8 41 4.5 NE 11 13 6 7 1019.1 1018.5 0.0
08/12:00am 7.7 3.8 -5.0 40 4.5 NE 7 9 4 5 1019.3 1018.7 0.0
 
Date/Time
WST
Temp
°C
App
Temp
°C
Dew
Point
°C
Rel
Hum
%
Delta-T
°C
Wind Press
QNH
hPa
Press
MSL
hPa
Rain since
9am
mm
Dir  Spd
km/h
Gust
km/h
Spd
kts
Gust
kts
07/11:30pm 8.5 3.8 -4.6 39 4.8 ENE 11 13 6 7 1019.3 1018.7 0.0
07/11:00pm 9.0 4.7 -4.9 37 5.0 NE 9 11 5 6 1019.3 1018.7 0.0
07/10:30pm 10.2 6.5 -4.6 35 5.5 NE 6 9 3 5 1019.3 1018.7 0.0
07/10:00pm 9.5 5.6 -4.8 36 5.2 E 7 9 4 5 1019.2 1018.6 0.0
07/09:30pm 10.0 6.1 -4.7 35 5.4 ENE 7 11 4 6 1019.2 1018.6 0.0
07/09:00pm 10.0 5.7 -4.7 35 5.4 ENE 9 11 5 6 1019.3 1018.7 0.0
07/08:30pm 10.9 7.0 -4.7 33 5.8 NNE 7 9 4 5 1019.3 1018.7 0.0
07/08:00pm 11.4 7.5 -4.7 32 6.0 N 7 7 4 4 1019.2 1018.6 0.0
07/07:30pm 12.1 8.4 -4.9 30 6.4 N 6 7 3 4 1019.0 1018.4 0.0
07/07:00pm 14.1 10.2 -5.1 26 7.4 NW 7 9 4 5 1018.8 1018.2 0.0
07/06:30pm 16.1 11.7 -6.2 21 8.6 NW 9 11 5 6 1018.3 1017.8 0.0
07/06:00pm 17.5 13.1 -6.3 19 9.2 NW 9 9 5 5 1017.8 1017.2 0.0
07/05:30pm 19.3 14.4 -7.1 16 10.3 NW 11 15 6 8 1017.5 1016.9 0.0
07/05:00pm 20.5 15.6 -7.0 15 10.9 NNW 11 17 6 9 1017.4 1016.8 0.0
07/04:30pm 21.1 16.3 -6.5 15 11.1 NW 11 19 6 10 1017.1 1016.5 0.0
07/04:00pm 21.6 16.0 -6.1 15 11.3 WNW 15 22 8 12 1017.0 1016.4 0.0
07/03:30pm 21.4 16.2 -6.3 15 11.2 NW 13 22 7 12 1016.9 1016.3 0.0

Other formats

Comma delimited format used in spreadsheet applications
http://www.bom.gov.au/fwo/IDW60801/IDW60801.94449.axf

JavaScript Object Notation format (JSON) in row-major order
http://www.bom.gov.au/fwo/IDW60801/IDW60801.94449.json

Data quality

Most of these data are generated automatically and are frequently updated. Quality checks on data are not normally performed. It is possible for incorrect values to appear. Refer to information at About Latest Weather Observations and please check the disclaimer before using these data.